Time;durP1;ratioP1;P1;durP2;ratioP2;P2;SDS_P1;SDS_P2;PMS_P1;PMS_P2;Temp;Humidity;BMP_temperature;BMP_pressure;BME280_temperature;BME280_humidity;BME280_pressure;Samples;Min_cycle;Max_cycle;Signal;HPM_P1;HPM_P2
2022/06/13 00:00:22;;;;;;;6.53;3.08;;;14.40;99.90;;;;;;5019524;28;20406;-67
2022/06/13 00:02:48;;;;;;;13.25;3.47;;;14.50;99.90;;;;;;5038469;28;20029;-68
2022/06/13 00:05:15;;;;;;;7.63;2.70;;;14.50;99.90;;;;;;5020319;28;20056;-67
2022/06/13 00:07:41;;;;;;;10.50;3.53;;;14.50;99.90;;;;;;5022572;28;20408;-70
2022/06/13 00:10:09;;;;;;;11.48;3.42;;;14.60;99.90;;;;;;5018622;28;20030;-68
2022/06/13 00:12:35;;;;;;;8.07;3.00;;;14.60;99.90;;;;;;5022742;28;20043;-69
2022/06/13 00:15:01;;;;;;;12.60;3.63;;;14.60;99.90;;;;;;5018686;28;20025;-70
2022/06/13 00:17:27;;;;;;;9.63;3.03;;;14.60;99.90;;;;;;5022476;28;20690;-70
2022/06/13 00:19:52;;;;;;;8.13;3.05;;;14.60;99.90;;;;;;5020216;28;20037;-68
2022/06/13 00:22:18;;;;;;;17.48;3.17;;;14.60;99.90;;;;;;5020300;28;20037;-70
2022/06/13 00:24:45;;;;;;;12.75;2.95;;;14.50;99.90;;;;;;5039032;28;20037;-68
2022/06/13 00:27:11;;;;;;;11.07;2.92;;;14.50;99.90;;;;;;5036863;28;20486;-70
2022/06/13 00:29:38;;;;;;;10.90;2.97;;;14.50;99.90;;;;;;5022424;28;20044;-67
2022/06/13 00:32:04;;;;;;;9.95;3.08;;;14.50;99.90;;;;;;5032225;28;20103;-70
2022/06/13 00:34:30;;;;;;;12.27;2.65;;;14.40;99.90;;;;;;5039952;28;20032;-68
2022/06/13 00:36:55;;;;;;;13.60;3.35;;;14.40;99.90;;;;;;5037064;28;20079;-70
2022/06/13 00:39:21;;;;;;;10.05;2.83;;;14.40;99.90;;;;;;5037431;28;20041;-70
2022/06/13 00:41:47;;;;;;;16.17;2.97;;;14.40;99.90;;;;;;5017602;28;20040;-70
2022/06/13 00:44:34;;;;;;;9.23;2.75;;;14.40;99.90;;;;;;5019080;28;20056;-71
2022/06/13 00:47:00;;;;;;;11.38;3.42;;;14.40;99.90;;;;;;5039749;28;20040;-68
2022/06/13 00:49:29;;;;;;;10.23;3.08;;;14.40;99.90;;;;;;5019566;28;20577;-69
2022/06/13 00:52:18;;;;;;;11.68;3.30;;;14.40;99.90;;;;;;5021401;28;20406;-69
2022/06/13 00:54:46;;;;;;;10.95;3.22;;;14.40;99.90;;;;;;5034345;28;20132;-71
2022/06/13 00:57:30;;;;;;;10.45;3.50;;;14.40;99.90;;;;;;5039170;28;20037;-69
2022/06/13 01:00:00;;;;;;;9.35;2.88;;;14.40;99.90;;;;;;5038919;28;20900;-69
2022/06/13 01:02:26;;;;;;;16.25;3.13;;;14.50;99.90;;;;;;5019543;28;20045;-70
2022/06/13 01:04:53;;;;;;;11.85;3.60;;;14.40;99.90;;;;;;5042923;28;20037;-70
2022/06/13 01:07:20;;;;;;;16.05;3.15;;;14.50;99.90;;;;;;5045016;28;20048;-69
2022/06/13 01:12:32;;;;;;;11.32;2.92;;;14.40;99.90;;;;;;5034024;28;20044;-68
2022/06/13 01:15:15;;;;;;;14.77;4.88;;;14.50;99.90;;;;;;5040096;28;20041;-70
2022/06/13 01:17:49;;;;;;;16.35;3.35;;;14.50;99.90;;;;;;5034689;28;20045;-70
2022/06/13 01:20:59;;;;;;;7.47;3.15;;;14.50;99.90;;;;;;5044856;28;20068;-67
2022/06/13 01:23:38;;;;;;;8.32;2.72;;;14.50;99.90;;;;;;5037032;28;20072;-68
2022/06/13 01:26:14;;;;;;;11.93;3.10;;;14.50;99.90;;;;;;5019259;28;20052;-69
2022/06/13 01:29:04;;;;;;;15.55;3.60;;;14.50;99.90;;;;;;5035366;28;20034;-68
2022/06/13 01:31:51;;;;;;;10.40;3.35;;;14.50;99.90;;;;;;5039281;28;20037;-68
2022/06/13 01:34:34;;;;;;;9.68;3.03;;;14.50;99.90;;;;;;5018220;28;20034;-67
2022/06/13 01:37:42;;;;;;;25.35;3.90;;;14.50;99.90;;;;;;5031971;28;20041;-68
2022/06/13 01:40:13;;;;;;;8.65;3.33;;;14.50;99.90;;;;;;5033218;28;20035;-67
2022/06/13 01:43:03;;;;;;;14.20;3.30;;;14.60;99.90;;;;;;5021449;28;20048;-70
2022/06/13 01:45:40;;;;;;;8.38;2.90;;;14.60;99.90;;;;;;5032622;28;20045;-70
2022/06/13 01:48:30;;;;;;;7.25;2.92;;;14.60;99.90;;;;;;5031930;28;20434;-70
2022/06/13 01:51:22;;;;;;;8.40;3.13;;;14.60;99.90;;;;;;5017879;28;20037;-69
2022/06/13 01:54:00;;;;;;;8.45;3.00;;;14.60;99.90;;;;;;5039885;28;20029;-70
2022/06/13 01:56:52;;;;;;;13.10;3.85;;;14.50;99.90;;;;;;5022209;28;20041;-70
2022/06/13 01:59:23;;;;;;;10.90;2.92;;;14.60;99.90;;;;;;5011769;28;20071;-68
2022/06/13 02:02:16;;;;;;;7.63;2.70;;;14.50;99.90;;;;;;5040672;28;20119;-70
2022/06/13 02:04:54;;;;;;;13.45;3.72;;;14.50;99.90;;;;;;5024522;28;20113;-69
2022/06/13 02:07:29;;;;;;;9.98;3.45;;;14.50;99.90;;;;;;5022445;28;20087;-69
2022/06/13 02:10:05;;;;;;;14.27;3.08;;;14.50;99.90;;;;;;5042578;28;20098;-70
2022/06/13 02:12:34;;;;;;;9.52;3.55;;;14.50;99.90;;;;;;5036117;28;20041;-69
2022/06/13 02:15:07;;;;;;;12.23;3.72;;;14.50;99.90;;;;;;5035259;28;20497;-68
2022/06/13 02:17:46;;;;;;;9.75;3.28;;;14.50;99.90;;;;;;5036881;28;20029;-69
2022/06/13 02:20:24;;;;;;;9.68;3.10;;;14.50;99.90;;;;;;5040643;28;20095;-67
2022/06/13 02:22:54;;;;;;;11.80;3.95;;;14.50;99.90;;;;;;5023894;28;20037;-68
2022/06/13 02:25:31;;;;;;;11.30;3.78;;;14.50;99.90;;;;;;5042706;28;20029;-69
2022/06/13 02:28:26;;;;;;;7.57;3.20;;;14.50;99.90;;;;;;5035671;28;20037;-70
2022/06/13 02:30:56;;;;;;;9.68;3.97;;;14.50;99.90;;;;;;5040064;28;20025;-69
2022/06/13 02:33:35;;;;;;;8.82;3.25;;;14.40;99.90;;;;;;5021476;28;20033;-72
2022/06/13 02:36:18;;;;;;;10.38;3.45;;;14.40;99.90;;;;;;5035259;28;20033;-67
2022/06/13 02:38:53;;;;;;;10.77;3.38;;;14.40;99.90;;;;;;5023212;28;20382;-69
2022/06/13 02:41:22;;;;;;;10.38;3.55;;;14.40;99.90;;;;;;5041057;28;20501;-69
2022/06/13 02:44:33;;;;;;;12.45;3.83;;;14.40;99.90;;;;;;5039192;28;20052;-67
2022/06/13 02:47:09;;;;;;;14.05;3.78;;;14.40;99.90;;;;;;5028380;28;20041;-69
2022/06/13 02:49:40;;;;;;;13.80;4.53;;;14.40;99.90;;;;;;5036619;28;20037;-69
2022/06/13 02:52:24;;;;;;;14.27;3.80;;;14.40;99.90;;;;;;5040695;28;20048;-70
2022/06/13 02:54:52;;;;;;;18.55;4.25;;;14.50;99.90;;;;;;5023870;28;20029;-69
2022/06/13 02:57:31;;;;;;;9.85;4.60;;;14.40;99.90;;;;;;5039555;28;20029;-67
2022/06/13 03:00:20;;;;;;;14.68;4.40;;;14.50;99.90;;;;;;5020524;28;20091;-70
2022/06/13 03:03:08;;;;;;;11.88;3.42;;;14.50;99.90;;;;;;5038883;28;20055;-68
2022/06/13 03:05:46;;;;;;;9.77;3.53;;;14.50;99.90;;;;;;5037016;28;20036;-69
2022/06/13 03:08:40;;;;;;;14.02;4.20;;;14.60;99.90;;;;;;5039502;28;20465;-70
2022/06/13 03:11:54;;;;;;;16.50;4.57;;;14.60;99.90;;;;;;5036553;28;20072;-67
2022/06/13 03:14:29;;;;;;;9.20;3.50;;;14.60;99.90;;;;;;5037600;28;20049;-71
2022/06/13 03:17:01;;;;;;;10.63;3.78;;;14.60;99.90;;;;;;5034416;28;20095;-69
2022/06/13 03:19:40;;;;;;;11.23;3.72;;;14.60;99.90;;;;;;5034133;28;20061;-69
2022/06/13 03:22:15;;;;;;;15.52;4.50;;;14.70;99.90;;;;;;5030991;28;20040;-70
2022/06/13 03:25:07;;;;;;;13.23;4.20;;;14.70;99.90;;;;;;5021536;28;20036;-70
2022/06/13 03:27:42;;;;;;;10.75;4.03;;;14.70;99.90;;;;;;5018300;28;20063;-68
2022/06/13 03:30:13;;;;;;;10.50;3.25;;;14.70;99.90;;;;;;5038814;28;20110;-69
2022/06/13 03:35:58;;;;;;;10.52;3.10;;;14.70;99.90;;;;;;4952857;28;20043;-70
2022/06/13 03:38:30;;;;;;;7.95;3.08;;;14.80;99.90;;;;;;5018242;28;20057;-70
2022/06/13 03:40:59;;;;;;;10.32;3.05;;;14.80;99.90;;;;;;5016261;28;20457;-70
2022/06/13 03:43:33;;;;;;;11.90;2.85;;;14.90;99.90;;;;;;5041289;28;20131;-70
2022/06/13 03:46:28;;;;;;;14.20;3.20;;;14.90;99.90;;;;;;5017118;28;20061;-70
2022/06/13 03:49:10;;;;;;;21.83;2.65;;;14.90;99.90;;;;;;5015652;28;20049;-70
2022/06/13 03:51:41;;;;;;;12.60;3.35;;;15.00;99.90;;;;;;5037043;28;20041;-69
2022/06/13 03:54:20;;;;;;;13.40;3.05;;;15.00;99.90;;;;;;5020708;28;20029;-70
2022/06/13 03:56:51;;;;;;;17.30;3.67;;;15.00;99.90;;;;;;5018365;28;20045;-69
2022/06/13 03:59:30;;;;;;;17.95;3.50;;;15.00;99.90;;;;;;5040877;28;20029;-69
2022/06/13 04:02:03;;;;;;;11.73;3.03;;;15.00;99.90;;;;;;5039308;28;20052;-70
2022/06/13 04:04:44;;;;;;;11.32;2.90;;;15.10;99.90;;;;;;5022613;28;20040;-69
2022/06/13 04:07:10;;;;;;;12.45;2.83;;;15.10;99.90;;;;;;5021451;28;20512;-69
2022/06/13 04:09:42;;;;;;;11.98;2.72;;;15.10;99.90;;;;;;5039275;28;20370;-67
2022/06/13 04:12:17;;;;;;;14.73;3.42;;;15.10;99.90;;;;;;5038062;28;20684;-70
2022/06/13 04:15:21;;;;;;;18.63;4.20;;;15.00;99.90;;;;;;5041999;28;20053;-68
2022/06/13 04:18:11;;;;;;;13.13;3.40;;;15.10;99.90;;;;;;5023463;28;20037;-70
2022/06/13 04:20:39;;;;;;;16.93;3.13;;;15.10;99.90;;;;;;5037129;28;20478;-69
2022/06/13 04:23:19;;;;;;;22.70;3.38;;;15.10;99.90;;;;;;5037993;28;20048;-68
2022/06/13 04:26:03;;;;;;;18.15;3.00;;;15.10;99.90;;;;;;5040983;28;20037;-67
2022/06/13 04:28:35;;;;;;;9.55;2.58;;;15.10;99.90;;;;;;5035142;28;20037;-70
2022/06/13 04:31:02;;;;;;;17.38;2.72;;;15.10;99.90;;;;;;5034716;28;20091;-68
2022/06/13 04:33:41;;;;;;;11.48;2.53;;;15.10;99.90;;;;;;5033189;28;20115;-69
2022/06/13 04:36:11;;;;;;;10.82;2.53;;;15.20;99.90;;;;;;5031409;28;20079;-69
2022/06/13 04:38:40;;;;;;;12.15;2.47;;;15.20;99.90;;;;;;5034888;28;20153;-69
2022/06/13 04:41:07;;;;;;;9.07;2.58;;;15.20;99.90;;;;;;5036320;28;20110;-69
2022/06/13 04:43:38;;;;;;;13.60;2.70;;;15.20;99.90;;;;;;5036641;28;20030;-70
2022/06/13 04:46:05;;;;;;;9.07;2.17;;;15.20;99.90;;;;;;5036351;28;20030;-69
2022/06/13 04:48:31;;;;;;;7.32;2.25;;;15.20;99.90;;;;;;5017409;28;20561;-70
2022/06/13 04:51:01;;;;;;;12.73;2.13;;;15.30;99.90;;;;;;5037170;28;20080;-67
2022/06/13 04:53:36;;;;;;;12.27;2.20;;;15.30;99.90;;;;;;5030915;28;20025;-70
2022/06/13 04:56:01;;;;;;;7.45;1.58;;;15.40;99.90;;;;;;5026817;28;20033;-70
2022/06/13 04:58:30;;;;;;;8.88;1.70;;;15.40;99.90;;;;;;5027732;28;20371;-70
2022/06/13 05:01:28;;;;;;;8.95;2.42;;;15.50;99.90;;;;;;5032603;28;20044;-68
2022/06/13 05:03:57;;;;;;;12.20;1.73;;;15.50;99.90;;;;;;5028742;28;20037;-66
2022/06/13 05:06:39;;;;;;;9.50;2.20;;;15.50;99.90;;;;;;5028695;28;20041;-68
2022/06/13 05:09:10;;;;;;;7.30;1.50;;;15.50;99.90;;;;;;5026669;28;20128;-70
2022/06/13 05:11:45;;;;;;;10.20;1.80;;;15.50;99.90;;;;;;5028644;28;20037;-69
2022/06/13 05:14:18;;;;;;;10.82;1.60;;;15.60;99.90;;;;;;5030002;28;20168;-69
2022/06/13 05:16:54;;;;;;;10.80;1.50;;;15.60;99.90;;;;;;5029865;28;20116;-69
2022/06/13 05:19:23;;;;;;;7.22;1.38;;;15.70;99.90;;;;;;5027336;28;20572;-70
2022/06/13 05:22:27;;;;;;;12.85;1.65;;;15.70;99.90;;;;;;5035617;28;20060;-70
2022/06/13 05:25:06;;;;;;;7.28;1.65;;;15.70;99.90;;;;;;4986606;28;20029;-69
2022/06/13 05:27:31;;;;;;;6.13;1.05;;;15.80;99.90;;;;;;5017611;28;20408;-70
2022/06/13 05:29:57;;;;;;;7.35;1.23;;;15.80;99.90;;;;;;5033531;28;20093;-69
2022/06/13 05:32:23;;;;;;;3.42;1.00;;;15.80;99.90;;;;;;5017101;28;20037;-70
2022/06/13 05:34:50;;;;;;;3.20;1.20;;;15.90;99.90;;;;;;5015355;28;20022;-70
2022/06/13 05:37:17;;;;;;;7.45;1.13;;;15.90;99.90;;;;;;5014084;28;20041;-68
2022/06/13 05:39:43;;;;;;;5.68;1.05;;;16.10;99.90;;;;;;5015254;28;20144;-70
2022/06/13 05:42:13;;;;;;;5.05;0.98;;;16.30;99.90;;;;;;5035606;28;20044;-68
2022/06/13 05:44:40;;;;;;;2.75;0.60;;;16.60;99.90;;;;;;5031846;28;20121;-70
2022/06/13 05:47:17;;;;;;;5.78;1.88;;;16.90;99.90;;;;;;5019026;28;20033;-70
2022/06/13 05:49:43;;;;;;;21.35;1.33;;;17.10;99.90;;;;;;5034263;28;20120;-70
2022/06/13 05:52:09;;;;;;;4.28;0.70;;;17.20;99.90;;;;;;5022369;28;20123;-70
2022/06/13 05:54:36;;;;;;;3.83;0.50;;;17.30;99.90;;;;;;5022903;28;20033;-70
2022/06/13 05:57:02;;;;;;;1.30;0.40;;;17.50;99.90;;;;;;5020471;28;20033;-69
2022/06/13 05:59:28;;;;;;;4.65;0.50;;;17.90;99.90;;;;;;5034799;28;20392;-70
2022/06/13 06:01:53;;;;;;;5.38;0.68;;;18.20;99.90;;;;;;5031275;28;20033;-68
2022/06/13 06:04:19;;;;;;;4.03;0.90;;;18.30;99.90;;;;;;5016611;28;20788;-71
2022/06/13 06:06:45;;;;;;;2.33;0.65;;;18.30;99.90;;;;;;5031179;28;20112;-70
2022/06/13 06:09:12;;;;;;;5.72;0.90;;;18.30;99.90;;;;;;5032456;28;20074;-70
2022/06/13 06:11:38;;;;;;;6.70;0.90;;;18.20;99.90;;;;;;5029958;28;20080;-68
2022/06/13 06:14:03;;;;;;;2.95;1.30;;;18.10;99.90;;;;;;5013407;28;20060;-70
2022/06/13 06:16:29;;;;;;;2.70;0.60;;;18.10;99.90;;;;;;5031562;28;20112;-69
2022/06/13 06:18:55;;;;;;;4.57;0.80;;;18.10;99.90;;;;;;5033769;28;20450;-68
2022/06/13 06:21:21;;;;;;;4.20;0.95;;;18.00;99.90;;;;;;5032391;28;20129;-69
2022/06/13 06:23:47;;;;;;;4.47;0.90;;;18.10;99.90;;;;;;5011705;28;20160;-69
2022/06/13 06:26:16;;;;;;;4.90;0.93;;;18.40;99.90;;;;;;5013086;28;20033;-70
2022/06/13 06:28:41;;;;;;;6.22;0.82;;;18.30;99.90;;;;;;5032307;28;20036;-69
2022/06/13 06:31:07;;;;;;;6.18;1.10;;;18.50;99.90;;;;;;5031490;28;20032;-67
2022/06/13 06:33:33;;;;;;;7.38;0.95;;;18.40;99.90;;;;;;5032827;28;20025;-70
2022/06/13 06:35:59;;;;;;;5.82;1.15;;;18.40;99.90;;;;;;5029697;28;20048;-70
2022/06/13 06:38:26;;;;;;;8.25;1.20;;;18.40;99.90;;;;;;5031124;28;20037;-70
2022/06/13 06:40:52;;;;;;;5.72;0.98;;;18.70;99.90;;;;;;5031709;28;20044;-67
2022/06/13 06:43:17;;;;;;;3.63;0.75;;;18.80;99.90;;;;;;5031224;28;20025;-69
2022/06/13 06:45:43;;;;;;;3.25;0.57;;;18.80;99.90;;;;;;5011929;28;20458;-69
2022/06/13 06:48:18;;;;;;;4.10;0.95;;;18.80;99.90;;;;;;5028705;28;20029;-68
2022/06/13 06:50:45;;;;;;;3.65;1.20;;;18.70;99.90;;;;;;5029280;28;20072;-67
2022/06/13 06:53:12;;;;;;;4.97;0.28;;;18.60;99.90;;;;;;5026552;28;20025;-69
2022/06/13 07:01:10;;;;;;;6.40;0.47;;;19.70;99.90;;;;;;5028471;28;20501;-69
2022/06/13 07:03:36;;;;;;;2.63;0.43;;;20.80;99.90;;;;;;5012013;28;20030;-71
2022/06/13 07:06:02;;;;;;;2.97;0.95;;;21.60;99.90;;;;;;5029804;28;20037;-70
2022/06/13 07:08:28;;;;;;;6.07;0.40;;;22.20;97.40;;;;;;5028764;28;20033;-70
2022/06/13 07:10:54;;;;;;;4.18;0.95;;;22.70;96.50;;;;;;5031198;28;20044;-69
2022/06/13 07:13:20;;;;;;;0.75;0.40;;;23.60;96.20;;;;;;5028017;28;20699;-70
2022/06/13 07:15:48;;;;;;;8.05;1.08;;;24.60;94.10;;;;;;5027507;28;20636;-70
2022/06/13 07:18:14;;;;;;;6.38;1.25;;;25.40;92.50;;;;;;5029002;28;20026;-71
2022/06/13 07:20:39;;;;;;;2.00;0.75;;;26.10;91.40;;;;;;5029463;28;20041;-70
2022/06/13 07:23:06;;;;;;;3.60;0.63;;;25.90;87.30;;;;;;5029077;28;20043;-71
2022/06/13 07:25:33;;;;;;;6.47;0.80;;;25.90;86.10;;;;;;5027651;28;20029;-69
2022/06/13 07:27:58;;;;;;;7.00;0.93;;;26.40;81.10;;;;;;5026948;28;20029;-69
2022/06/13 07:30:27;;;;;;;5.05;1.42;;;26.90;82.80;;;;;;5027724;28;20086;-71
2022/06/13 07:32:54;;;;;;;9.18;1.65;;;27.60;79.60;;;;;;5017187;28;20178;-70
2022/06/13 07:35:22;;;;;;;7.47;1.67;;;27.60;77.30;;;;;;5011466;28;20041;-70
2022/06/13 07:40:32;;;;;;;5.20;1.05;;;27.50;76.60;;;;;;5027839;28;20088;-71
2022/06/13 07:43:03;;;;;;;8.23;1.30;;;26.40;76.10;;;;;;5032035;28;20059;-71
2022/06/13 07:45:33;;;;;;;3.55;0.88;;;25.50;77.40;;;;;;5010706;28;20659;-70
2022/06/13 07:47:58;;;;;;;1.92;0.40;;;24.20;77.60;;;;;;5028764;28;20025;-70
2022/06/13 07:50:26;;;;;;;2.35;0.60;;;23.20;80.40;;;;;;5010033;28;20064;-69
2022/06/13 07:52:52;;;;;;;1.98;0.60;;;23.20;82.50;;;;;;5028356;28;21237;-71
2022/06/13 07:55:19;;;;;;;3.50;0.68;;;23.90;80.70;;;;;;5030913;28;20037;-70
2022/06/13 07:57:46;;;;;;;5.22;0.95;;;24.30;79.70;;;;;;5029690;28;20475;-69
2022/06/13 08:00:21;;;;;;;4.28;0.77;;;24.40;79.20;;;;;;5009715;28;20064;-71
2022/06/13 08:02:47;;;;;;;4.20;0.50;;;23.40;81.20;;;;;;5030225;28;20061;-70
2022/06/13 08:05:13;;;;;;;2.15;0.73;;;23.00;83.70;;;;;;5028245;28;20083;-70
2022/06/13 08:07:39;;;;;;;3.78;0.52;;;22.30;83.40;;;;;;5008268;28;20041;-70
2022/06/13 08:10:05;;;;;;;2.85;0.55;;;22.00;85.00;;;;;;5027389;28;20112;-70
2022/06/13 08:12:31;;;;;;;2.38;0.68;;;22.30;85.50;;;;;;5028982;28;20148;-68
2022/06/13 08:14:57;;;;;;;4.85;0.63;;;22.70;84.60;;;;;;5029095;28;20132;-67
2022/06/13 08:17:22;;;;;;;5.07;0.40;;;22.90;83.40;;;;;;5026782;28;20550;-65
2022/06/13 08:19:50;;;;;;;3.03;0.70;;;23.20;83.10;;;;;;5010273;28;20458;-68
2022/06/13 08:22:16;;;;;;;1.40;0.35;;;23.20;80.90;;;;;;5026634;28;20501;-68
2022/06/13 08:24:42;;;;;;;2.92;0.57;;;22.80;79.40;;;;;;5009969;28;20033;-67
2022/06/13 08:27:08;;;;;;;3.58;0.50;;;22.40;81.80;;;;;;5026800;28;20041;-68
2022/06/13 08:29:33;;;;;;;3.80;0.30;;;22.00;82.50;;;;;;5009886;28;20099;-66
2022/06/13 08:32:00;;;;;;;2.90;0.60;;;21.20;84.50;;;;;;5008848;28;20033;-70
2022/06/13 08:34:26;;;;;;;5.05;0.60;;;20.70;88.20;;;;;;5009436;28;20520;-71
2022/06/13 08:36:53;;;;;;;1.10;0.13;;;20.00;90.50;;;;;;5028179;28;20048;-71
2022/06/13 08:39:20;;;;;;;5.20;0.70;;;19.50;93.50;;;;;;5011397;28;20040;-71
2022/06/13 08:42:01;;;;;;;5.47;0.68;;;19.10;94.00;;;;;;5028841;28;20485;-69
2022/06/13 08:44:39;;;;;;;7.30;0.68;;;18.70;94.80;;;;;;5012604;28;20144;-70
2022/06/13 08:47:20;;;;;;;4.40;0.40;;;19.00;95.70;;;;;;5027620;28;20444;-71
2022/06/13 08:49:51;;;;;;;4.13;0.30;;;19.20;95.00;;;;;;5026795;28;20034;-69
2022/06/13 08:52:31;;;;;;;6.97;1.17;;;19.50;94.90;;;;;;5028399;28;20036;-68
2022/06/13 08:55:06;;;;;;;3.30;0.68;;;20.10;96.20;;;;;;5007809;28;20026;-69
2022/06/13 08:57:34;;;;;;;8.20;1.60;;;20.30;92.70;;;;;;5010453;28;20041;-69
2022/06/13 09:00:15;;;;;;;4.57;0.32;;;20.30;93.20;;;;;;5026644;28;20025;-70
2022/06/13 09:02:47;;;;;;;1.35;0.25;;;19.90;92.70;;;;;;5028717;28;20156;-70
2022/06/13 09:05:20;;;;;;;1.75;0.40;;;19.50;92.40;;;;;;5009764;28;20033;-70
2022/06/13 09:08:04;;;;;;;4.82;0.52;;;19.40;93.60;;;;;;5017842;28;20044;-71
2022/06/13 09:10:42;;;;;;;1.83;0.30;;;19.60;92.90;;;;;;5012367;28;20387;-67
2022/06/13 09:13:12;;;;;;;1.73;0.38;;;20.00;92.10;;;;;;5024653;28;20065;-70
2022/06/13 09:15:47;;;;;;;5.68;0.50;;;19.90;92.50;;;;;;5029675;28;20216;-68
2022/06/13 09:18:27;;;;;;;5.25;1.00;;;20.00;91.30;;;;;;5006996;28;20026;-70
2022/06/13 09:20:57;;;;;;;2.00;0.43;;;19.80;91.90;;;;;;5012836;28;20121;-70
2022/06/13 09:23:47;;;;;;;6.60;1.00;;;20.00;92.70;;;;;;5026517;28;20044;-70
2022/06/13 09:26:15;;;;;;;4.20;0.60;;;20.00;91.90;;;;;;5027507;28;20057;-69
2022/06/13 09:28:50;;;;;;;3.88;0.52;;;19.80;92.20;;;;;;5028906;28;20030;-69
2022/06/13 09:34:41;;;;;;;3.35;0.25;;;20.30;92.20;;;;;;5027791;28;20083;-69
2022/06/13 09:37:12;;;;;;;1.57;0.23;;;20.60;92.40;;;;;;5011305;28;20775;-71
2022/06/13 09:39:38;;;;;;;5.50;1.00;;;20.60;91.30;;;;;;5008405;28;20300;-70
2022/06/13 09:42:29;;;;;;;2.65;0.30;;;20.70;91.40;;;;;;5028303;28;20034;-68
2022/06/13 09:45:15;;;;;;;2.60;0.30;;;20.90;91.50;;;;;;5030842;28;20557;-70
2022/06/13 09:47:59;;;;;;;4.70;0.30;;;20.70;90.90;;;;;;5008063;28;20509;-69
2022/06/13 09:50:28;;;;;;;1.80;0.40;;;20.50;89.60;;;;;;5029772;28;20046;-69
2022/06/13 09:53:15;;;;;;;3.88;0.50;;;20.20;90.40;;;;;;5034194;28;20412;-70
2022/06/13 09:55:44;;;;;;;3.47;0.45;;;20.30;90.70;;;;;;5031055;28;20477;-70
2022/06/13 09:58:13;;;;;;;5.40;0.32;;;20.50;92.50;;;;;;5029402;28;20095;-70
2022/06/13 10:01:08;;;;;;;3.25;0.40;;;20.90;91.60;;;;;;5025751;28;20033;-68
2022/06/13 10:03:53;;;;;;;5.50;0.73;;;20.70;90.30;;;;;;5034455;28;20047;-71
2022/06/13 10:06:42;;;;;;;18.85;0.60;;;20.20;90.70;;;;;;5031504;28;20052;-69
2022/06/13 10:09:23;;;;;;;6.30;0.57;;;20.10;91.40;;;;;;5032573;28;20033;-70
2022/06/13 10:11:53;;;;;;;2.15;0.40;;;20.20;92.00;;;;;;5019253;28;20044;-70
2022/06/13 10:14:27;;;;;;;3.70;0.30;;;20.40;92.50;;;;;;5039476;28;20045;-71
2022/06/13 10:16:52;;;;;;;3.58;0.40;;;20.80;93.40;;;;;;5021079;28;20045;-73
2022/06/13 10:19:35;;;;;;;5.03;0.55;;;21.00;91.40;;;;;;5040122;28;20063;-70
2022/06/13 10:22:18;;;;;;;7.75;0.85;;;20.70;90.50;;;;;;5026204;28;20124;-70
2022/06/13 10:25:05;;;;;;;2.53;0.40;;;20.50;91.30;;;;;;5028587;28;20048;-69
2022/06/13 10:27:56;;;;;;;3.83;0.85;;;20.60;91.90;;;;;;5039572;28;20115;-70
2022/06/13 10:30:33;;;;;;;2.03;0.50;;;20.80;90.90;;;;;;5020849;28;20033;-70
2022/06/13 10:33:21;;;;;;;0.40;0.10;;;21.00;90.20;;;;;;5040520;28;20377;-70
2022/06/13 10:36:12;;;;;;;1.83;0.15;;;21.20;90.20;;;;;;5037432;28;20120;-72
2022/06/13 10:38:56;;;;;;;1.92;0.40;;;21.10;87.20;;;;;;5019408;28;20120;-70
2022/06/13 10:41:27;;;;;;;2.88;0.30;;;21.10;89.90;;;;;;5043750;28;22344;-69
2022/06/13 10:43:54;;;;;;;;;;;21.00;87.80;;;;;;5027809;28;20037;-70
2022/06/13 10:46:20;;;;;;;5.60;0.47;;;21.10;88.10;;;;;;5018386;28;20393;-72
2022/06/13 10:49:14;;;;;;;1.70;0.38;;;20.80;85.50;;;;;;5028342;28;20101;-71
2022/06/13 10:51:42;;;;;;;4.57;0.50;;;20.40;85.90;;;;;;5032815;28;20045;-71
2022/06/13 10:54:16;;;;;;;3.67;0.30;;;20.40;90.00;;;;;;5033452;28;20026;-71
2022/06/13 10:56:56;;;;;;;2.83;0.30;;;20.60;90.20;;;;;;5028009;28;20052;-72
2022/06/13 10:59:26;;;;;;;3.35;0.32;;;20.80;88.50;;;;;;5039420;28;20029;-71
2022/06/13 11:02:00;;;;;;;2.22;0.20;;;21.20;88.40;;;;;;5031889;28;20034;-71
2022/06/13 11:04:29;;;;;;;4.78;1.10;;;21.10;85.80;;;;;;5019170;28;20045;-71
2022/06/13 11:06:59;;;;;;;4.13;0.55;;;21.00;88.50;;;;;;5017044;28;20511;-69
2022/06/13 11:09:34;;;;;;;5.43;0.73;;;20.80;84.70;;;;;;5023294;28;20041;-69
2022/06/13 11:12:03;;;;;;;1.38;0.20;;;20.20;87.30;;;;;;5044823;28;20033;-70
2022/06/13 11:22:37;;;;;;;5.57;0.30;;;20.50;89.90;;;;;;5046723;28;20094;-67
2022/06/13 11:23:01;;;;;;;2.75;0.30;;;21.50;87.30;;;;;;5027892;28;20044;-72
2022/06/13 11:25:33;;;;;;;2.13;0.30;;;21.60;86.70;;;;;;5008102;28;20472;-72
2022/06/13 11:28:15;;;;;;;3.08;0.52;;;21.70;86.50;;;;;;5029699;28;20021;-69
2022/06/13 11:30:46;;;;;;;4.53;0.70;;;21.70;84.80;;;;;;5030537;28;20033;-71
2022/06/13 11:33:22;;;;;;;2.58;0.68;;;21.80;88.00;;;;;;5031446;28;20037;-71
2022/06/13 11:35:53;;;;;;;3.42;0.30;;;21.60;85.80;;;;;;5026431;28;20064;-72
2022/06/13 11:38:18;;;;;;;1.75;0.47;;;21.40;84.70;;;;;;5011866;28;20125;-71
2022/06/13 11:40:46;;;;;;;2.63;0.50;;;21.30;84.30;;;;;;5027352;28;20033;-70
2022/06/13 11:43:23;;;;;;;1.98;0.10;;;21.40;87.50;;;;;;5025912;28;20124;-71
2022/06/13 11:46:01;;;;;;;2.88;0.60;;;21.60;85.80;;;;;;5007904;28;20034;-71
2022/06/13 11:48:28;;;;;;;1.45;0.30;;;21.50;83.90;;;;;;5024916;28;20036;-69
2022/06/13 11:51:02;;;;;;;3.47;0.30;;;21.40;84.30;;;;;;5025416;28;20030;-72
2022/06/13 11:53:37;;;;;;;3.30;0.47;;;21.30;86.00;;;;;;5028495;28;20630;-70
2022/06/13 11:56:09;;;;;;;4.88;0.63;;;21.20;86.60;;;;;;5012538;28;20421;-69
2022/06/13 11:58:40;;;;;;;7.72;0.90;;;21.00;85.20;;;;;;5009969;28;20029;-70
2022/06/13 12:01:20;;;;;;;5.10;0.50;;;20.90;88.70;;;;;;5012656;28;20521;-70
2022/06/13 12:03:58;;;;;;;2.05;0.75;;;20.70;87.60;;;;;;5028271;28;20108;-67
2022/06/13 12:06:25;;;;;;;4.57;1.00;;;20.30;85.90;;;;;;5010644;28;20090;-71
2022/06/13 12:09:12;;;;;;;5.45;0.47;;;20.20;89.10;;;;;;5013697;28;20034;-70
2022/06/13 12:11:48;;;;;;;3.65;0.80;;;20.10;88.80;;;;;;5027793;28;20034;-70
2022/06/13 12:14:14;;;;;;;4.70;0.30;;;19.90;87.10;;;;;;5027163;28;20037;-70
2022/06/13 12:17:01;;;;;;;2.50;0.55;;;19.90;87.80;;;;;;5010258;28;20041;-70
2022/06/13 12:19:32;;;;;;;2.13;0.20;;;19.60;87.00;;;;;;5007915;28;20063;-70
2022/06/13 12:22:00;;;;;;;2.65;0.52;;;19.70;88.00;;;;;;5022830;28;20052;-68
2022/06/13 12:24:41;;;;;;;7.63;1.05;;;19.80;90.20;;;;;;5030072;28;20060;-70
2022/06/13 12:27:31;;;;;;;2.95;0.35;;;19.90;85.20;;;;;;5027781;28;20042;-71
2022/06/13 12:30:42;;;;;;;3.88;0.88;;;20.10;88.70;;;;;;5030656;28;20084;-70
2022/06/13 12:33:38;;;;;;;2.42;0.63;;;20.40;85.30;;;;;;5027286;28;20474;-70
2022/06/13 12:36:28;;;;;;;2.00;0.28;;;20.50;85.40;;;;;;5029736;28;20048;-73
2022/06/13 12:39:24;;;;;;;1.83;0.20;;;20.30;83.80;;;;;;5015909;28;20041;-69
2022/06/13 12:41:57;;;;;;;4.53;0.60;;;20.20;86.40;;;;;;5027715;28;20042;-70
2022/06/13 12:44:25;;;;;;;3.88;0.75;;;20.00;85.30;;;;;;5024755;28;20037;-71
2022/06/13 12:47:15;;;;;;;1.63;0.98;;;20.00;87.30;;;;;;5010638;28;20033;-71
2022/06/13 12:49:53;;;;;;;1.08;0.22;;;19.90;88.60;;;;;;5031935;28;20026;-71
2022/06/13 12:52:43;;;;;;;4.35;0.88;;;20.00;89.10;;;;;;5028338;28;20060;-70
2022/06/13 12:55:46;;;;;;;7.00;0.70;;;20.20;88.00;;;;;;5010274;28;20068;-70
2022/06/13 12:58:22;;;;;;;3.00;0.50;;;20.40;86.30;;;;;;5028883;28;20041;-71
2022/06/13 13:01:01;;;;;;;4.43;0.65;;;20.30;86.20;;;;;;5029062;28;20073;-68
2022/06/13 13:03:33;;;;;;;2.83;0.65;;;20.00;86.20;;;;;;5024410;28;20037;-71
2022/06/13 13:06:13;;;;;;;3.92;0.98;;;20.10;87.20;;;;;;5009198;28;20124;-70
2022/06/13 13:09:11;;;;;;;3.88;0.75;;;20.30;88.50;;;;;;5028731;28;20086;-70
2022/06/13 13:12:08;;;;;;;2.38;0.60;;;20.40;86.20;;;;;;5026081;28;20034;-69
2022/06/13 13:14:49;;;;;;;4.80;0.50;;;20.50;84.40;;;;;;5022495;28;20041;-70
2022/06/13 13:17:37;;;;;;;3.25;0.28;;;20.70;87.20;;;;;;5027521;28;20054;-69
2022/06/13 13:20:41;;;;;;;6.75;0.38;;;20.80;87.10;;;;;;5027645;28;20041;-68
2022/06/13 13:23:23;;;;;;;7.78;0.70;;;20.80;85.50;;;;;;5010400;28;20191;-68
2022/06/13 13:26:09;;;;;;;1.10;0.35;;;20.30;86.00;;;;;;5031324;28;20529;-69
2022/06/13 13:28:43;;;;;;;3.35;0.73;;;19.90;87.70;;;;;;5030655;28;20038;-70
2022/06/13 13:31:18;;;;;;;11.13;0.88;;;19.80;87.30;;;;;;5024005;28;20053;-70
2022/06/13 13:34:18;;;;;;;6.78;0.75;;;19.80;88.60;;;;;;5013150;28;20124;-70
2022/06/13 13:36:55;;;;;;;6.07;1.15;;;19.90;89.60;;;;;;5028411;28;20045;-71
2022/06/13 13:39:31;;;;;;;4.03;0.50;;;20.20;87.20;;;;;;5027608;28;20048;-71
2022/06/13 13:42:05;;;;;;;4.43;0.40;;;20.40;86.20;;;;;;5007799;28;20056;-70
2022/06/13 13:44:43;;;;;;;6.75;0.50;;;20.50;86.30;;;;;;5028048;28;20167;-69